M I D A S
Marine Information and Data Acquisition System
Tripno 1737 of the Zeeleeuw from 2009-07-23 07:29:28 to 2009-07-23 14:44:42
Back to CruiseResearch ActivitiesStationsMapUnderway DataData graphs

EquipmentUnitsComment
TimeDGPSUTC
LatitudeDGPSDM.mWGS84
LongitudeDGPSDM.mWGS84
HeadingGyrodeg 
SOGDGPSknotsSpeed over ground
COGDGPSdegCourse over ground
DepthEcho soundermeters200 kHz
Missing or incorrect values are displayed as -999
Navigation data collected by the RV Zeeleeuw from 2009-07-23 07:24:28 to 2009-07-23 14:51:59
                                                                                    Next 1000 lines
Time Latitude Longitude Heading SOG COG Depth
2009-07-23 07:24:38 51°13.663 2°55.956 112.6 0.8 302 -999
2009-07-23 07:24:43 51°13.664 2°55.954 112.6 1.2 293 -999
2009-07-23 07:24:47 51°13.665 2°55.951 112.6 1.5 299 4.7
2009-07-23 07:24:53 51°13.666 2°55.947 112.6 1.8 297 -999
2009-07-23 07:24:58 51°13.667 2°55.943 112.7 2 295 -999
2009-07-23 07:25:02 51°13.669 2°55.939 112.5 2.3 298 -999
2009-07-23 07:25:08 51°13.67 2°55.934 112.3 2.4 294 -999
2009-07-23 07:25:13 51°13.672 2°55.928 112.1 2.6 298 -999
2009-07-23 07:25:18 51°13.674 2°55.923 112.1 2.7 296 -999
2009-07-23 07:25:22 51°13.675 2°55.918 112.1 2.9 296 -999
2009-07-23 07:25:27 51°13.676 2°55.913 112.2 3 296 -999
2009-07-23 07:25:33 51°13.679 2°55.905 112.3 3.1 297 -999
2009-07-23 07:25:38 51°13.68 2°55.899 112.2 3.2 297 -999
2009-07-23 07:25:42 51°13.682 2°55.894 111.9 3.3 296 -999
2009-07-23 07:25:47 51°13.684 2°55.887 111.1 3.4 296 -999
2009-07-23 07:25:53 51°13.686 2°55.879 110.5 3.5 295 -999
2009-07-23 07:25:58 51°13.688 2°55.872 108.9 3.5 294 -999
2009-07-23 07:26:02 51°13.69 2°55.866 106.9 3.4 292 -999
2009-07-23 07:26:07 51°13.692 2°55.859 104.8 3.4 291 -999
2009-07-23 07:26:13 51°13.693 2°55.851 103.2 3.4 289 -999
2009-07-23 07:26:18 51°13.695 2°55.844 100.8 3.3 288 -999
2009-07-23 07:26:23 51°13.696 2°55.837 98.5 3.2 286 -999
2009-07-23 07:26:27 51°13.697 2°55.831 95.9 3.2 283 -999
2009-07-23 07:26:33 51°13.697 2°55.823 93.1 3.1 281 -999
2009-07-23 07:26:38 51°13.698 2°55.817 90.9 3 279 -999
2009-07-23 07:26:43 51°13.698 2°55.81 87.6 2.9 276 -999
2009-07-23 07:26:48 51°13.698 2°55.804 85.1 2.8 274 -999
2009-07-23 07:26:53 51°13.699 2°55.798 83.2 2.7 272 -999
2009-07-23 07:26:58 51°13.698 2°55.792 80.4 2.6 270 -999
2009-07-23 07:27:02 51°13.698 2°55.788 78.2 2.6 267 11
2009-07-23 07:27:08 51°13.698 2°55.781 76.4 2.4 266 11.5
2009-07-23 07:27:12 51°13.698 2°55.777 74.7 2.3 265 11.8
2009-07-23 07:27:17 51°13.698 2°55.772 73.2 2.2 263 11.6
2009-07-23 07:27:22 51°13.697 2°55.768 71.7 2.1 262 11.7
2009-07-23 07:27:27 51°13.697 2°55.763 70.1 2.1 261 11.7
2009-07-23 07:27:31 51°13.696 2°55.76 68.6 2 260 11.7
2009-07-23 07:27:36 51°13.696 2°55.756 67.3 1.9 260 11.5
2009-07-23 07:27:41 51°13.695 2°55.752 66.1 1.8 258 11.2
2009-07-23 07:27:46 51°13.695 2°55.748 64.7 1.6 260 11.5
2009-07-23 07:27:51 51°13.695 2°55.745 63.4 1.4 260 11.7
2009-07-23 07:27:56 51°13.695 2°55.743 61.8 1.1 265 11.8
2009-07-23 07:28:01 51°13.695 2°55.741 59.6 0.8 271 11.8
2009-07-23 07:28:05 51°13.695 2°55.74 56.7 0.6 281 11.7
2009-07-23 07:28:10 51°13.695 2°55.739 53.4 0.5 306 11.5
2009-07-23 07:28:15 51°13.696 2°55.739 49.6 0.5 328 11.4
2009-07-23 07:28:20 51°13.696 2°55.739 45.8 0.6 347 11.4
2009-07-23 07:28:25 51°13.698 2°55.739 41.6 0.7 -999 11.5
2009-07-23 07:28:30 51°13.699 2°55.739 37.3 0.9 3 11.5
2009-07-23 07:28:34 51°13.7 2°55.739 32.7 1 7 11.5
2009-07-23 07:28:39 51°13.702 2°55.739 27.8 1.3 1 11.3
2009-07-23 07:28:44 51°13.704 2°55.74 22.9 1.9 7 11.2
2009-07-23 07:28:49 51°13.708 2°55.739 16.5 2.3 -999 11.1
2009-07-23 07:28:54 51°13.712 2°55.739 8.2 3 354 11.2
2009-07-23 07:28:59 51°13.716 2°55.737 359.2 3.3 349 11.1
2009-07-23 07:29:05 51°13.722 2°55.733 347.8 3.6 339 -999
2009-07-23 07:29:10 51°13.727 2°55.73 340.3 3.8 335 11.1
2009-07-23 07:29:14 51°13.73 2°55.726 334.7 4 329 11.1
2009-07-23 07:29:19 51°13.735 2°55.721 331.9 4.1 330 10.9
2009-07-23 07:29:24 51°13.741 2°55.715 330.4 4.7 327 10.7
2009-07-23 07:29:29 51°13.747 2°55.709 330 5.3 328 10.5
2009-07-23 07:29:34 51°13.754 2°55.702 330.1 6 327 10.1
2009-07-23 07:29:39 51°13.762 2°55.695 331.2 6.4 330 9.8
2009-07-23 07:29:44 51°13.77 2°55.686 331.8 7 329 9.3
2009-07-23 07:29:49 51°13.779 2°55.678 331.8 7.5 329 9.9
2009-07-23 07:29:54 51°13.788 2°55.67 333.2 7.8 332 10.2
2009-07-23 07:29:59 51°13.798 2°55.661 333.7 8.1 331 10.2
2009-07-23 07:30:04 51°13.809 2°55.652 334 8.3 332 9.9
2009-07-23 07:30:09 51°13.819 2°55.644 334.5 8.6 332 9.8
2009-07-23 07:30:14 51°13.83 2°55.635 334.5 8.8 333 9.5
2009-07-23 07:30:19 51°13.841 2°55.626 334.4 8.9 333 9.4
2009-07-23 07:30:24 51°13.852 2°55.617 334.5 9 333 9.5
2009-07-23 07:30:29 51°13.864 2°55.608 334.9 9.1 334 9.8
2009-07-23 07:30:34 51°13.875 2°55.598 335 9.2 333 9.8
2009-07-23 07:30:39 51°13.887 2°55.589 335.4 9.3 334 9.8
2009-07-23 07:30:44 51°13.898 2°55.58 335.7 9.4 333 9.8
2009-07-23 07:30:49 51°13.91 2°55.571 335.4 9.4 334 9.8
2009-07-23 07:30:54 51°13.922 2°55.562 335.6 9.4 334 9.8
2009-07-23 07:30:59 51°13.933 2°55.553 335.7 9.4 334 9.8
2009-07-23 07:31:04 51°13.945 2°55.544 335.7 9.5 335 9.8
2009-07-23 07:31:09 51°13.957 2°55.535 336.1 9.5 335 9.8
2009-07-23 07:31:14 51°13.969 2°55.526 336.1 9.5 335 9.8
2009-07-23 07:31:19 51°13.981 2°55.517 335.6 9.5 334 9.8
2009-07-23 07:31:24 51°13.993 2°55.509 336.1 9.5 336 9.8
2009-07-23 07:31:29 51°14.005 2°55.5 336.6 9.5 335 9.8
2009-07-23 07:31:34 51°14.017 2°55.491 336.1 9.5 334 9.5
2009-07-23 07:31:39 51°14.029 2°55.481 335.5 9.5 334 9.7
2009-07-23 07:31:44 51°14.04 2°55.472 335.4 9.5 335 9.7
2009-07-23 07:31:49 51°14.052 2°55.463 335.6 9.5 334 9.8
2009-07-23 07:31:54 51°14.064 2°55.454 335.4 9.5 334 9.8
2009-07-23 07:31:59 51°14.076 2°55.446 336.1 9.5 335 9.5
2009-07-23 07:32:04 51°14.088 2°55.436 336.4 9.5 334 8.7
2009-07-23 07:32:09 51°14.1 2°55.427 336.4 9.4 334 9.2
2009-07-23 07:32:14 51°14.111 2°55.418 335.5 9.4 332 9.6
2009-07-23 07:32:19 51°14.123 2°55.408 334.9 9.4 333 9.8
2009-07-23 07:32:24 51°14.134 2°55.399 335.4 9.3 334 9.7
2009-07-23 07:32:29 51°14.146 2°55.389 335.5 9.3 332 9.7
2009-07-23 07:32:34 51°14.157 2°55.379 334 9.3 330 9.7
2009-07-23 07:32:39 51°14.168 2°55.368 331.8 9.2 328 9.7
2009-07-23 07:32:44 51°14.179 2°55.357 330.3 9.3 327 9.6
2009-07-23 07:32:49 51°14.189 2°55.345 328.6 9.3 325 9.7
2009-07-23 07:32:54 51°14.2 2°55.334 327.3 9.3 325 9.7
2009-07-23 07:32:59 51°14.21 2°55.321 326.4 9.3 324 9.7
2009-07-23 07:33:04 51°14.22 2°55.309 325.5 9.2 323 9.7
2009-07-23 07:33:09 51°14.23 2°55.296 324.5 9.2 322 9.7
2009-07-23 07:33:14 51°14.24 2°55.283 323.1 9.2 319 9.7
2009-07-23 07:33:19 51°14.249 2°55.269 320.9 9.2 317 9.7
2009-07-23 07:33:24 51°14.258 2°55.255 318.5 9.3 315 9.5
2009-07-23 07:33:29 51°14.267 2°55.24 316.3 9.3 313 9.3
2009-07-23 07:33:34 51°14.276 2°55.225 315.7 9.4 314 9.4
2009-07-23 07:33:39 51°14.285 2°55.209 314.9 9.4 312 9.6
2009-07-23 07:33:44 51°14.294 2°55.194 314.2 9.5 313 9.5
2009-07-23 07:33:49 51°14.303 2°55.179 314.3 9.6 313 9.8
2009-07-23 07:33:54 51°14.312 2°55.163 314.4 9.7 312 9.5
2009-07-23 07:33:59 51°14.321 2°55.147 313.9 9.8 312 9.7
2009-07-23 07:34:04 51°14.331 2°55.131 313.9 9.8 314 9.8
2009-07-23 07:34:09 51°14.34 2°55.115 314 9.8 312 9.8
2009-07-23 07:34:14 51°14.349 2°55.099 314.4 9.9 314 9.8
2009-07-23 07:34:19 51°14.358 2°55.083 314.1 10 312 9.9
2009-07-23 07:34:24 51°14.368 2°55.067 313.9 10.1 314 9.6
2009-07-23 07:34:29 51°14.377 2°55.05 314.3 10.1 313 9.1
2009-07-23 07:34:34 51°14.388 2°55.034 315.4 10.2 316 9.1
2009-07-23 07:34:39 51°14.398 2°55.019 317.6 10.2 317 8.9
2009-07-23 07:34:44 51°14.409 2°55.004 320 10.2 318 8.9
2009-07-23 07:34:49 51°14.419 2°54.989 321.5 10.3 318 9
2009-07-23 07:34:54 51°14.43 2°54.974 322.2 10.4 319 9.1
2009-07-23 07:34:59 51°14.441 2°54.96 323.1 10.4 320 9
2009-07-23 07:35:04 51°14.453 2°54.945 324 10.5 321 9.1
2009-07-23 07:35:09 51°14.464 2°54.93 325.1 10.6 321 9.1
2009-07-23 07:35:14 51°14.476 2°54.916 325.8 10.6 322 9
2009-07-23 07:35:19 51°14.487 2°54.901 326.5 10.7 322 9
2009-07-23 07:35:24 51°14.499 2°54.887 327.4 10.7 323 9
2009-07-23 07:35:29 51°14.512 2°54.874 329 10.8 325 9
2009-07-23 07:35:34 51°14.524 2°54.861 331.6 10.8 328 8.9
2009-07-23 07:35:39 51°14.537 2°54.848 334 10.8 329 8.8
2009-07-23 07:35:44 51°14.55 2°54.836 335.2 10.8 329 8.8
2009-07-23 07:35:49 51°14.563 2°54.823 335 10.9 327 8.6
2009-07-23 07:35:54 51°14.575 2°54.809 334.5 11 327 8.6
2009-07-23 07:35:59 51°14.588 2°54.795 334 11.1 326 8.5
2009-07-23 07:36:04 51°14.601 2°54.782 333.6 11.1 327 8.5
2009-07-23 07:36:09 51°14.614 2°54.768 334.3 11.2 327 8.5
2009-07-23 07:36:14 51°14.627 2°54.755 334.7 11.2 327 8.4
2009-07-23 07:36:19 51°14.64 2°54.741 334.9 11.2 327 8.4
2009-07-23 07:36:24 51°14.653 2°54.728 335.1 11.3 328 8.4
2009-07-23 07:36:29 51°14.666 2°54.714 334.9 11.3 326 8.4
2009-07-23 07:36:34 51°14.679 2°54.7 334.3 11.4 326 8.5
2009-07-23 07:36:39 51°14.692 2°54.686 333.9 11.4 326 8.5
2009-07-23 07:36:44 51°14.706 2°54.672 334 11.4 327 8.5
2009-07-23 07:36:49 51°14.719 2°54.659 334.5 11.4 327 8.4
2009-07-23 07:36:54 51°14.732 2°54.645 334.6 11.4 327 8.5
2009-07-23 07:36:59 51°14.745 2°54.632 334.7 11.4 327 8.5
2009-07-23 07:37:04 51°14.759 2°54.618 334.3 11.4 327 8.5
2009-07-23 07:37:09 51°14.772 2°54.604 334.3 11.3 328 8.3
2009-07-23 07:37:14 51°14.785 2°54.591 334.8 11.3 328 8.4
2009-07-23 07:37:19 51°14.798 2°54.577 334.9 11.3 328 8.4
2009-07-23 07:37:24 51°14.812 2°54.564 334.8 11.3 328 8.3
2009-07-23 07:37:29 51°14.825 2°54.551 334.8 11.3 328 8.3
2009-07-23 07:37:34 51°14.838 2°54.538 334.7 11.3 328 8.4
2009-07-23 07:37:39 51°14.852 2°54.525 334.7 11.3 328 8.3
2009-07-23 07:37:44 51°14.865 2°54.513 335.1 11.3 329 8.2
2009-07-23 07:37:49 51°14.879 2°54.5 335.2 11.3 329 8.3
2009-07-23 07:37:54 51°14.892 2°54.487 335.2 11.2 329 8.1
2009-07-23 07:37:59 51°14.905 2°54.474 335.3 11.2 329 7.9
2009-07-23 07:38:04 51°14.919 2°54.462 335.9 11.2 330 8
2009-07-23 07:38:09 51°14.932 2°54.45 336.2 11.2 330 8
2009-07-23 07:38:14 51°14.946 2°54.438 336.6 11.2 331 8
2009-07-23 07:38:19 51°14.959 2°54.427 337 11.1 332 8.7
2009-07-23 07:38:24 51°14.973 2°54.415 337.6 11.2 332 9.1
2009-07-23 07:38:29 51°14.987 2°54.404 337.8 11.2 332 9
2009-07-23 07:38:34 51°15.001 2°54.392 338 11.2 332 9.1
2009-07-23 07:38:39 51°15.014 2°54.38 337.6 11.3 331 9.1
2009-07-23 07:38:44 51°15.028 2°54.368 337 11.2 331 9.2
2009-07-23 07:38:49 51°15.041 2°54.355 336.9 11.2 331 9.2
2009-07-23 07:38:54 51°15.055 2°54.343 336.3 11.2 330 9.1
2009-07-23 07:38:59 51°15.068 2°54.331 336.2 11.2 330 9.2
2009-07-23 07:39:04 51°15.082 2°54.319 336.1 11.2 330 9.2
2009-07-23 07:39:09 51°15.095 2°54.307 336.1 11.2 330 9.2
2009-07-23 07:39:14 51°15.109 2°54.295 336.1 11.2 330 9.3
2009-07-23 07:39:19 51°15.122 2°54.282 336.2 11.2 330 9.3
2009-07-23 07:39:24 51°15.135 2°54.27 336.5 11.2 331 9.3
2009-07-23 07:39:29 51°15.149 2°54.258 336.6 11.2 330 9.3
2009-07-23 07:39:34 51°15.162 2°54.246 336.8 11.2 331 9.3
2009-07-23 07:39:39 51°15.176 2°54.233 336.7 11.2 330 9.4
2009-07-23 07:39:44 51°15.189 2°54.221 336.5 11.2 330 9.4
2009-07-23 07:39:49 51°15.203 2°54.209 336.4 11.2 330 9.4
2009-07-23 07:39:54 51°15.216 2°54.197 336.2 11.2 330 9.4
2009-07-23 07:39:59 51°15.229 2°54.184 336.2 11.2 330 9.5
2009-07-23 07:40:04 51°15.243 2°54.172 336.2 11.1 330 9.6
2009-07-23 07:40:09 51°15.256 2°54.159 336.6 11.2 330 9.5
2009-07-23 07:40:14 51°15.27 2°54.147 336.1 11.2 329 9.5
2009-07-23 07:40:19 51°15.283 2°54.134 336.1 11.2 330 9.6
2009-07-23 07:40:24 51°15.297 2°54.122 336.4 11.2 330 9.7
2009-07-23 07:40:29 51°15.31 2°54.11 336.7 11.2 331 9.7
2009-07-23 07:40:34 51°15.324 2°54.098 336.9 11.2 331 9.8
2009-07-23 07:40:39 51°15.337 2°54.086 337.1 11.2 331 9.8
2009-07-23 07:40:44 51°15.351 2°54.074 337.9 11.3 332 9.7
2009-07-23 07:40:49 51°15.365 2°54.063 338.3 11.2 332 9.6
2009-07-23 07:40:54 51°15.379 2°54.051 338.6 11.2 332 9.8
2009-07-23 07:40:59 51°15.392 2°54.039 338.7 11.2 332 9.6
2009-07-23 07:41:04 51°15.406 2°54.028 338.8 11.2 332 9.6
2009-07-23 07:41:09 51°15.42 2°54.016 338.6 11.2 332 9.7
2009-07-23 07:41:14 51°15.433 2°54.004 338.5 11.2 331 9.7
2009-07-23 07:41:19 51°15.447 2°53.992 338.4 11.2 332 9.6
2009-07-23 07:41:24 51°15.461 2°53.98 338.5 11.2 331 9.5
2009-07-23 07:41:29 51°15.474 2°53.967 337.6 11.2 330 9.2
2009-07-23 07:41:34 51°15.488 2°53.954 337.2 11.2 329 9.3
2009-07-23 07:41:39 51°15.501 2°53.942 336.8 11.3 329 9.3
2009-07-23 07:41:44 51°15.515 2°53.93 336.9 11.2 331 9
2009-07-23 07:41:49 51°15.528 2°53.917 337.6 11.2 330 9.2
2009-07-23 07:41:54 51°15.541 2°53.904 337.6 11.3 329 9.1
2009-07-23 07:41:59 51°15.555 2°53.891 337.1 11.3 329 9.3
2009-07-23 07:42:04 51°15.568 2°53.879 337.1 11.3 330 9.2
2009-07-23 07:42:09 51°15.582 2°53.866 337.5 11.3 330 9.3
2009-07-23 07:42:14 51°15.595 2°53.853 337.9 11.3 331 9.5
2009-07-23 07:42:19 51°15.609 2°53.841 338.3 11.3 330 9.5
2009-07-23 07:42:24 51°15.622 2°53.829 338.1 11.3 329 9.5
2009-07-23 07:42:29 51°15.636 2°53.816 337.5 11.3 329 9.7
2009-07-23 07:42:34 51°15.649 2°53.804 337.7 11.3 330 9.5
2009-07-23 07:42:39 51°15.663 2°53.791 337.9 11.3 330 9.6
2009-07-23 07:42:44 51°15.676 2°53.778 338.2 11.3 330 9.7
2009-07-23 07:42:49 51°15.69 2°53.766 338.9 11.3 331 9.7
2009-07-23 07:42:54 51°15.704 2°53.754 339 11.3 330 9.7
2009-07-23 07:42:59 51°15.717 2°53.742 339.1 11.3 331 9.9
2009-07-23 07:43:04 51°15.731 2°53.729 339.1 11.3 330 9.7
2009-07-23 07:43:09 51°15.745 2°53.716 339.1 11.4 330 9.8
2009-07-23 07:43:14 51°15.758 2°53.703 338.5 11.4 329 9.9
2009-07-23 07:43:19 51°15.772 2°53.691 338.6 11.3 330 10
2009-07-23 07:43:23 51°15.783 2°53.681 339 11.3 330 10
2009-07-23 07:43:29 51°15.799 2°53.666 339 11.3 330 10.1
2009-07-23 07:43:34 51°15.813 2°53.653 339 11.4 330 10.2
2009-07-23 07:43:38 51°15.824 2°53.644 338.9 11.4 330 10.1
2009-07-23 07:43:43 51°15.837 2°53.631 338.8 11.3 330 10.1
2009-07-23 07:43:49 51°15.854 2°53.616 338.4 11.4 329 10
2009-07-23 07:43:54 51°15.867 2°53.603 337.9 11.3 330 9.8
2009-07-23 07:43:59 51°15.881 2°53.591 337.9 11.4 330 9.8
2009-07-23 07:44:04 51°15.895 2°53.578 338.1 11.4 330 10.2
2009-07-23 07:44:09 51°15.908 2°53.565 338.4 11.4 330 10.2
2009-07-23 07:44:14 51°15.922 2°53.553 338.5 11.4 330 10.2
2009-07-23 07:44:19 51°15.936 2°53.54 338.6 11.4 330 10.2
2009-07-23 07:44:24 51°15.949 2°53.528 338.7 11.3 330 10.3
2009-07-23 07:44:29 51°15.963 2°53.515 338.5 11.3 329 10.2
2009-07-23 07:44:34 51°15.976 2°53.502 337.8 11.4 329 10.3
2009-07-23 07:44:39 51°15.99 2°53.489 337.6 11.4 329 10.3
2009-07-23 07:44:44 51°16.003 2°53.476 337.7 11.3 329 10.3
2009-07-23 07:44:49 51°16.017 2°53.463 338.2 11.3 328 10.4
2009-07-23 07:44:54 51°16.03 2°53.45 337.5 11.4 328 10.5
2009-07-23 07:44:59 51°16.043 2°53.436 336.9 11.3 328 10.4
2009-07-23 07:45:04 51°16.056 2°53.423 336.9 11.3 327 10.4
2009-07-23 07:45:09 51°16.07 2°53.41 336.4 11.3 328 10.4
2009-07-23 07:45:14 51°16.083 2°53.396 336.2 11.3 327 10.5
2009-07-23 07:45:19 51°16.096 2°53.382 336.1 11.3 328 10.5
2009-07-23 07:45:24 51°16.109 2°53.369 336.1 11.3 326 10.5
2009-07-23 07:45:29 51°16.123 2°53.355 335.8 11.3 327 10.5
2009-07-23 07:45:34 51°16.136 2°53.342 336.1 11.3 327 10.6
2009-07-23 07:45:39 51°16.149 2°53.328 336.1 11.3 327 10.6
2009-07-23 07:45:44 51°16.162 2°53.315 335.9 11.3 327 10.6
2009-07-23 07:45:49 51°16.175 2°53.301 336.4 11.3 329 10.6
2009-07-23 07:45:54 51°16.189 2°53.288 337.3 11.3 328 10.6
2009-07-23 07:45:59 51°16.202 2°53.275 337.2 11.3 328 10.6
2009-07-23 07:46:04 51°16.215 2°53.262 336.8 11.3 328 10.7
2009-07-23 07:46:09 51°16.229 2°53.249 336.9 11.3 329 10.6
2009-07-23 07:46:14 51°16.242 2°53.235 336.9 11.3 328 10.7
2009-07-23 07:46:19 51°16.255 2°53.223 336.9 11.3 329 10.7
2009-07-23 07:46:24 51°16.269 2°53.209 336.8 11.3 327 10.7
2009-07-23 07:46:29 51°16.282 2°53.196 336.5 11.3 328 10.8
2009-07-23 07:46:34 51°16.295 2°53.183 336.4 11.3 328 10.7
2009-07-23 07:46:39 51°16.308 2°53.17 336.5 11.3 329 10.8
2009-07-23 07:46:44 51°16.322 2°53.157 337.2 11.3 329 10.7
2009-07-23 07:46:49 51°16.335 2°53.144 337.7 11.3 329 10.8
2009-07-23 07:46:54 51°16.349 2°53.131 338.3 11.2 330 10.7
2009-07-23 07:46:59 51°16.362 2°53.119 338.5 11.3 329 10.9
2009-07-23 07:47:04 51°16.376 2°53.106 338.2 11.3 328 10.8
2009-07-23 07:47:09 51°16.389 2°53.093 338 11.3 329 10.8
2009-07-23 07:47:14 51°16.402 2°53.08 338.4 11.3 330 10.8
2009-07-23 07:47:19 51°16.416 2°53.067 338.7 11.3 330 10.7
2009-07-23 07:47:24 51°16.429 2°53.055 338.9 11.3 330 10.7
2009-07-23 07:47:29 51°16.443 2°53.043 339 11.3 331 10.6
2009-07-23 07:47:34 51°16.457 2°53.031 339 11.3 330 10.7
2009-07-23 07:47:39 51°16.47 2°53.018 338.8 11.2 331 10.7
2009-07-23 07:47:44 51°16.484 2°53.006 338.8 11.2 331 10.7
2009-07-23 07:47:49 51°16.497 2°52.994 338.5 11.2 330 10.7
2009-07-23 07:47:54 51°16.511 2°52.982 337.9 11.2 330 10.5
2009-07-23 07:47:59 51°16.524 2°52.969 337.3 11.3 330 10.6
2009-07-23 07:48:04 51°16.538 2°52.956 336.9 11.2 330 10.6
2009-07-23 07:48:09 51°16.551 2°52.944 336.8 11.2 330 10.6
2009-07-23 07:48:14 51°16.565 2°52.931 336.6 11.2 330 10.6
2009-07-23 07:48:19 51°16.578 2°52.92 336.9 11.2 331 10.5
2009-07-23 07:48:24 51°16.592 2°52.907 337.3 11.2 330 10.5
2009-07-23 07:48:29 51°16.605 2°52.895 337.2 11.2 330 10.4
2009-07-23 07:48:34 51°16.619 2°52.883 336.8 11.2 330 10.3
2009-07-23 07:48:39 51°16.632 2°52.87 336.4 11.2 329 10.2
2009-07-23 07:48:44 51°16.645 2°52.858 336.1 11.1 330 10.1
2009-07-23 07:48:49 51°16.659 2°52.845 336.1 11.1 330 10
2009-07-23 07:48:54 51°16.672 2°52.833 336.1 11.1 329 10
2009-07-23 07:48:59 51°16.685 2°52.821 335.9 11.1 330 9.8
2009-07-23 07:49:04 51°16.698 2°52.808 336 11.1 330 9.7
2009-07-23 07:49:09 51°16.712 2°52.796 336.1 11.1 330 9.6
2009-07-23 07:49:14 51°16.725 2°52.784 336.1 11 330 9.3
2009-07-23 07:49:19 51°16.738 2°52.771 336 11 329 9.2
2009-07-23 07:49:24 51°16.751 2°52.759 336 11 330 9
2009-07-23 07:49:29 51°16.764 2°52.746 335.7 10.9 329 8.7
2009-07-23 07:49:34 51°16.777 2°52.735 335.9 10.9 330 8.7
2009-07-23 07:49:38 51°16.787 2°52.725 336.2 10.8 329 8.7
2009-07-23 07:49:44 51°16.803 2°52.71 336.2 10.8 330 8.6
2009-07-23 07:49:49 51°16.816 2°52.698 336.6 10.8 330 8.6
2009-07-23 07:49:54 51°16.829 2°52.686 336.7 10.8 330 8.5
2009-07-23 07:49:59 51°16.842 2°52.674 336.2 10.8 329 8.4
2009-07-23 07:50:04 51°16.855 2°52.662 336.5 10.8 331 8.3
2009-07-23 07:50:09 51°16.868 2°52.65 337.1 10.8 330 8.4
2009-07-23 07:50:14 51°16.881 2°52.639 337.3 10.8 330 8.5
2009-07-23 07:50:19 51°16.894 2°52.627 337.4 10.8 330 8.6
2009-07-23 07:50:24 51°16.907 2°52.615 337.1 10.8 330 8.7
2009-07-23 07:50:29 51°16.919 2°52.603 336.9 10.8 329 8.6
2009-07-23 07:50:34 51°16.932 2°52.59 336.7 10.8 330 8.8
2009-07-23 07:50:39 51°16.945 2°52.578 336.7 10.8 330 8.7
2009-07-23 07:50:44 51°16.958 2°52.566 336.7 10.9 329 8.9
2009-07-23 07:50:49 51°16.971 2°52.553 336.6 10.8 329 8.6
2009-07-23 07:50:54 51°16.984 2°52.541 336.3 10.8 330 8.7
2009-07-23 07:50:59 51°16.997 2°52.529 336.3 10.8 329 8.6
2009-07-23 07:51:04 51°17.01 2°52.517 336.7 10.7 331 8.6
2009-07-23 07:51:09 51°17.023 2°52.505 337.3 10.7 329 8.5
2009-07-23 07:51:14 51°17.036 2°52.493 337.1 10.7 330 8.6
2009-07-23 07:51:19 51°17.048 2°52.481 336.9 10.8 329 8.8
2009-07-23 07:51:24 51°17.061 2°52.469 336.7 10.8 329 8.7
2009-07-23 07:51:29 51°17.074 2°52.457 336.6 10.8 329 8.7
2009-07-23 07:51:34 51°17.087 2°52.445 336.7 10.8 330 8.8
2009-07-23 07:51:39 51°17.1 2°52.433 336.8 10.8 330 8.6
2009-07-23 07:51:44 51°17.113 2°52.421 336.8 10.8 330 8.9
2009-07-23 07:51:49 51°17.126 2°52.41 337.8 10.7 332 9
2009-07-23 07:51:54 51°17.139 2°52.398 338.5 10.8 331 9
2009-07-23 07:51:59 51°17.152 2°52.387 339.1 10.7 332 8.9
2009-07-23 07:52:04 51°17.165 2°52.376 339.3 10.8 332 9
2009-07-23 07:52:09 51°17.179 2°52.365 339.7 10.8 332 9
2009-07-23 07:52:14 51°17.192 2°52.354 339.6 10.8 333 9.2
2009-07-23 07:52:19 51°17.205 2°52.343 340 10.8 333 9.1
2009-07-23 07:52:24 51°17.218 2°52.332 340.3 10.8 333 9.2
2009-07-23 07:52:29 51°17.232 2°52.322 340.3 10.8 333 9.1
2009-07-23 07:52:34 51°17.245 2°52.311 340.3 10.8 333 9.3
2009-07-23 07:52:39 51°17.258 2°52.299 340.3 10.8 332 9.3
2009-07-23 07:52:44 51°17.272 2°52.289 340 10.8 333 9.4
2009-07-23 07:52:49 51°17.285 2°52.278 339.9 10.8 332 9.3
2009-07-23 07:52:54 51°17.298 2°52.267 340 10.8 333 9.5
2009-07-23 07:52:59 51°17.312 2°52.256 340.5 10.8 333 9.7
2009-07-23 07:53:04 51°17.325 2°52.245 340.8 10.8 333 9.8
2009-07-23 07:53:09 51°17.338 2°52.234 340.5 10.8 332 9.9
2009-07-23 07:53:14 51°17.352 2°52.223 340.3 10.8 333 10.3
2009-07-23 07:53:19 51°17.365 2°52.213 340.5 10.8 334 10.1
2009-07-23 07:53:24 51°17.378 2°52.202 341.3 10.8 334 10.3
2009-07-23 07:53:29 51°17.392 2°52.192 341.9 10.8 335 10.2
2009-07-23 07:53:34 51°17.405 2°52.182 342 10.8 334 9.9
2009-07-23 07:53:39 51°17.419 2°52.171 341.5 10.8 333 9.9
2009-07-23 07:53:44 51°17.432 2°52.16 340.9 10.8 333 9.7
2009-07-23 07:53:49 51°17.445 2°52.149 340.6 10.8 333 10.1
2009-07-23 07:53:54 51°17.459 2°52.138 340.3 10.7 333 10.1
2009-07-23 07:53:59 51°17.472 2°52.127 340.5 10.8 332 9.9
2009-07-23 07:54:04 51°17.485 2°52.116 340.3 10.8 333 10.1
2009-07-23 07:54:09 51°17.498 2°52.105 340.2 10.8 333 9.8
2009-07-23 07:54:14 51°17.512 2°52.094 340.2 10.7 333 10.2
2009-07-23 07:54:19 51°17.525 2°52.083 340.1 10.7 332 10.2
2009-07-23 07:54:24 51°17.538 2°52.073 340 10.7 334 10.2
2009-07-23 07:54:29 51°17.551 2°52.062 340.4 10.7 332 9.9
2009-07-23 07:54:34 51°17.565 2°52.05 340.2 10.8 333 9.9
2009-07-23 07:54:39 51°17.578 2°52.039 339.9 10.7 332 9.7
2009-07-23 07:54:44 51°17.591 2°52.028 340 10.7 332 10
2009-07-23 07:54:49 51°17.604 2°52.017 339.7 10.7 332 9.8
2009-07-23 07:54:54 51°17.617 2°52.006 339.5 10.7 332 9.4
2009-07-23 07:54:59 51°17.63 2°51.995 339.8 10.6 333 9.4
2009-07-23 07:55:04 51°17.643 2°51.984 340.5 10.6 332 9.2
2009-07-23 07:55:09 51°17.656 2°51.973 340.4 10.6 332 9.2
2009-07-23 07:55:14 51°17.669 2°51.962 340.3 10.6 332 9.3
2009-07-23 07:55:19 51°17.682 2°51.951 340.2 10.7 332 9.3
2009-07-23 07:55:24 51°17.695 2°51.94 340.3 10.7 332 9.4
2009-07-23 07:55:29 51°17.708 2°51.929 340 10.7 332 9.3
2009-07-23 07:55:34 51°17.721 2°51.918 339.9 10.7 333 9.3
2009-07-23 07:55:39 51°17.735 2°51.907 340.4 10.7 332 9.3
2009-07-23 07:55:44 51°17.748 2°51.896 340.5 10.7 332 9.1
2009-07-23 07:55:49 51°17.761 2°51.885 340.1 10.7 332 9.2
2009-07-23 07:55:54 51°17.774 2°51.874 340 10.7 332 9.2
2009-07-23 07:55:59 51°17.787 2°51.863 339.8 10.7 332 9.1
2009-07-23 07:56:04 51°17.8 2°51.852 339.9 10.7 332 9.3
2009-07-23 07:56:09 51°17.813 2°51.841 340 10.7 333 9.2
2009-07-23 07:56:14 51°17.826 2°51.83 340.7 10.7 333 9.2
2009-07-23 07:56:19 51°17.839 2°51.819 340.9 10.7 333 9.2
2009-07-23 07:56:24 51°17.853 2°51.808 341 10.7 332 9.1
2009-07-23 07:56:29 51°17.866 2°51.797 340.5 10.8 332 9.3
2009-07-23 07:56:34 51°17.879 2°51.786 340.4 10.7 333 9.3
2009-07-23 07:56:39 51°17.892 2°51.775 340.4 10.7 332 9.2
2009-07-23 07:56:44 51°17.905 2°51.764 339.9 10.7 332 9.3
2009-07-23 07:56:49 51°17.918 2°51.753 340 10.7 332 9.3
2009-07-23 07:56:54 51°17.932 2°51.741 340.2 10.7 332 9.5
2009-07-23 07:56:59 51°17.945 2°51.73 340.3 10.8 332 9.4
2009-07-23 07:57:04 51°17.958 2°51.719 339.9 10.8 332 9.5
2009-07-23 07:57:09 51°17.971 2°51.707 339.9 10.8 331 9.4
2009-07-23 07:57:14 51°17.984 2°51.696 339.8 10.8 332 9.4
2009-07-23 07:57:19 51°17.997 2°51.685 339.8 10.8 332 9.6
2009-07-23 07:57:24 51°18.011 2°51.674 340.2 10.8 333 9.6
2009-07-23 07:57:29 51°18.024 2°51.663 341 10.8 333 9.8
2009-07-23 07:57:34 51°18.037 2°51.652 341.7 10.8 335 9.8
2009-07-23 07:57:39 51°18.051 2°51.642 342.3 10.8 334 9.8
2009-07-23 07:57:44 51°18.064 2°51.631 342.7 10.8 334 9.9
2009-07-23 07:57:49 51°18.078 2°51.621 342.5 10.9 334 10
2009-07-23 07:57:54 51°18.091 2°51.61 342.5 10.9 334 10
2009-07-23 07:57:59 51°18.105 2°51.599 342.5 10.9 333 10.2
2009-07-23 07:58:04 51°18.119 2°51.589 342.3 10.9 334 10.2
2009-07-23 07:58:09 51°18.132 2°51.578 342.3 10.9 333 10.2
2009-07-23 07:58:14 51°18.146 2°51.567 342 10.9 334 10.4
2009-07-23 07:58:19 51°18.159 2°51.556 342 10.9 333 10.5
2009-07-23 07:58:24 51°18.173 2°51.545 342 10.9 334 10.4
2009-07-23 07:58:29 51°18.186 2°51.534 342.2 10.9 332 10.6
2009-07-23 07:58:34 51°18.2 2°51.522 341.5 11 332 10.6
2009-07-23 07:58:39 51°18.213 2°51.511 341 10.9 332 10.6
2009-07-23 07:58:44 51°18.226 2°51.5 340.7 11 332 10.8
2009-07-23 07:58:49 51°18.24 2°51.488 340.8 10.9 332 10.9
2009-07-23 07:58:54 51°18.253 2°51.477 341.2 10.9 333 11
2009-07-23 07:58:59 51°18.267 2°51.467 341.7 10.9 333 10.9
2009-07-23 07:59:04 51°18.28 2°51.455 341.4 11 332 11.2
2009-07-23 07:59:09 51°18.294 2°51.444 341.2 10.9 332 11.3
2009-07-23 07:59:14 51°18.307 2°51.433 341.3 10.9 332 11.3
2009-07-23 07:59:19 51°18.321 2°51.421 341.2 11 332 11.4
2009-07-23 07:59:24 51°18.334 2°51.41 341.2 11 332 11.5
2009-07-23 07:59:29 51°18.348 2°51.399 341.5 10.9 333 11.5
2009-07-23 07:59:34 51°18.361 2°51.388 341.8 10.9 332 11.6
2009-07-23 07:59:39 51°18.374 2°51.376 341.2 11 330 11.6
2009-07-23 07:59:44 51°18.388 2°51.365 340.6 11 333 11.9
2009-07-23 07:59:49 51°18.401 2°51.353 340.9 11 331 11.9
2009-07-23 07:59:54 51°18.415 2°51.342 340.7 11 332 11.9
2009-07-23 07:59:59 51°18.428 2°51.33 340.5 11 331 12.1
2009-07-23 08:00:04 51°18.441 2°51.318 340.6 11 333 12.2
2009-07-23 08:00:09 51°18.455 2°51.307 341.2 10.9 332 12.2
2009-07-23 08:00:14 51°18.468 2°51.296 341.2 10.9 332 12.3
2009-07-23 08:00:19 51°18.482 2°51.284 341.1 11 331 12.4
2009-07-23 08:00:24 51°18.495 2°51.272 340.2 11 330 12.5
2009-07-23 08:00:29 51°18.508 2°51.26 339.8 11 330 12.7
2009-07-23 08:00:34 51°18.521 2°51.247 339 11 330 12.8
2009-07-23 08:00:39 51°18.534 2°51.236 339.4 11 331 12.6
2009-07-23 08:00:44 51°18.548 2°51.224 340 11 331 12.7
2009-07-23 08:00:49 51°18.561 2°51.212 340.2 11 332 12.8
2009-07-23 08:00:54 51°18.574 2°51.2 340.6 11 332 13
2009-07-23 08:00:59 51°18.588 2°51.189 340.8 11 332 12.9
2009-07-23 08:01:04 51°18.601 2°51.177 340.7 11 331 12.9
2009-07-23 08:01:09 51°18.614 2°51.165 341 10.9 332 12.9
2009-07-23 08:01:14 51°18.628 2°51.153 341.1 11 331 13
2009-07-23 08:01:19 51°18.641 2°51.142 340.9 11 331 13
2009-07-23 08:01:24 51°18.654 2°51.13 340.9 11 331 13.1
2009-07-23 08:01:29 51°18.668 2°51.118 340.8 11 331 13.2
2009-07-23 08:01:34 51°18.681 2°51.106 340.8 11.1 328 13.1
2009-07-23 08:01:39 51°18.694 2°51.093 339.4 11 330 13.3
2009-07-23 08:01:44 51°18.707 2°51.081 339.1 11.1 327 13.4
2009-07-23 08:01:49 51°18.72 2°51.068 338.2 11.1 329 13.4
2009-07-23 08:01:54 51°18.733 2°51.055 337.9 11.2 326 13.4
2009-07-23 08:01:59 51°18.746 2°51.041 337.2 11.1 327 13.5
2009-07-23 08:02:04 51°18.759 2°51.028 337 11.1 326 13.5
2009-07-23 08:02:09 51°18.772 2°51.014 336.5 11.1 327 13.5
2009-07-23 08:02:14 51°18.785 2°51.001 336.4 11.1 326 13.4
2009-07-23 08:02:19 51°18.798 2°50.987 336.5 11.1 326 13.5
2009-07-23 08:02:24 51°18.811 2°50.974 336.5 11.1 327 13.6
2009-07-23 08:02:29 51°18.823 2°50.96 336.7 11.2 326 13.7
2009-07-23 08:02:34 51°18.836 2°50.946 336.2 11.2 326 13.6
2009-07-23 08:02:39 51°18.849 2°50.933 336.1 11.2 326 13.7
2009-07-23 08:02:44 51°18.862 2°50.918 335.9 11.2 325 13.7
2009-07-23 08:02:49 51°18.875 2°50.905 336.1 11.2 326 13.8
2009-07-23 08:02:54 51°18.888 2°50.891 336.1 11.2 325 13.7
2009-07-23 08:02:59 51°18.9 2°50.877 335.4 11.2 325 13.8
2009-07-23 08:03:04 51°18.913 2°50.862 335 11.2 325 13.7
2009-07-23 08:03:09 51°18.926 2°50.848 335.2 11.2 324 13.7
2009-07-23 08:03:14 51°18.938 2°50.834 335 11.2 325 13.7
2009-07-23 08:03:19 51°18.951 2°50.82 334.8 11.2 324 13.7
2009-07-23 08:03:24 51°18.963 2°50.805 334.8 11.2 325 13.7
2009-07-23 08:03:29 51°18.976 2°50.791 334.7 11.1 325 13.7
2009-07-23 08:03:34 51°18.988 2°50.776 334.5 11.2 324 13.7
2009-07-23 08:03:39 51°19.001 2°50.762 334.7 11.1 325 13.6
2009-07-23 08:03:44 51°19.014 2°50.749 335.3 11.1 326 13.6
2009-07-23 08:03:49 51°19.027 2°50.734 335.7 11.2 325 13.6
2009-07-23 08:03:54 51°19.039 2°50.721 335.9 11.1 327 13.6
2009-07-23 08:03:59 51°19.052 2°50.707 336.2 11.1 326 13.6
2009-07-23 08:04:04 51°19.065 2°50.693 336.2 11.1 326 13.4
2009-07-23 08:04:09 51°19.078 2°50.679 335.9 11.2 325 13.6
2009-07-23 08:04:14 51°19.09 2°50.665 334.9 11.2 325 13.5
2009-07-23 08:04:19 51°19.103 2°50.651 335.1 11.1 327 13.4
2009-07-23 08:04:24 51°19.116 2°50.637 335.8 11.2 326 13.5
2009-07-23 08:04:29 51°19.129 2°50.624 336.3 11.1 327 13.3
2009-07-23 08:04:34 51°19.142 2°50.61 336.4 11.1 327 13.1
2009-07-23 08:04:39 51°19.155 2°50.597 336.9 11.1 328 12.8
2009-07-23 08:04:44 51°19.167 2°50.584 337.2 11.1 327 12.8
2009-07-23 08:04:49 51°19.18 2°50.57 336.8 11.1 326 12.6
2009-07-23 08:04:54 51°19.193 2°50.556 336.3 11.2 326 12.6
2009-07-23 08:04:59 51°19.206 2°50.543 336.1 11.2 326 12.5
2009-07-23 08:05:04 51°19.219 2°50.529 336.1 11.2 327 12.3
2009-07-23 08:05:09 51°19.232 2°50.516 336.6 11.1 327 12.2
2009-07-23 08:05:14 51°19.245 2°50.503 336.9 11.1 327 12.2
2009-07-23 08:05:19 51°19.258 2°50.489 336.9 11.1 327 12
2009-07-23 08:05:24 51°19.271 2°50.476 336.9 11.2 327 12
2009-07-23 08:05:29 51°19.284 2°50.462 336.1 11.2 326 11.9
2009-07-23 08:05:34 51°19.297 2°50.448 335.5 11.2 327 11.9
2009-07-23 08:05:39 51°19.31 2°50.435 335.4 11.2 326 11.7
2009-07-23 08:05:44 51°19.323 2°50.421 335 11.2 326 11.7
2009-07-23 08:05:49 51°19.335 2°50.407 334.8 11.2 326 11.2
2009-07-23 08:05:54 51°19.348 2°50.393 335.1 11.2 326 11.2
2009-07-23 08:05:59 51°19.361 2°50.38 335.3 11.1 327 10.8
2009-07-23 08:06:04 51°19.374 2°50.366 336.1 11.2 327 10.7
2009-07-23 08:06:09 51°19.387 2°50.353 336 11.2 326 10.9
2009-07-23 08:06:14 51°19.401 2°50.339 335.5 11.2 328 10.8
2009-07-23 08:06:19 51°19.414 2°50.326 335.9 11.2 328 11
2009-07-23 08:06:24 51°19.427 2°50.312 336.1 11.2 327 11
2009-07-23 08:06:29 51°19.44 2°50.299 336 11.2 327 11
2009-07-23 08:06:34 51°19.453 2°50.285 335.7 11.3 327 11
2009-07-23 08:06:39 51°19.466 2°50.271 335.4 11.2 327 10.8
2009-07-23 08:06:44 51°19.479 2°50.258 335.1 11.2 327 10.9
2009-07-23 08:06:49 51°19.492 2°50.245 336 11.2 328 11
2009-07-23 08:06:54 51°19.505 2°50.231 336.1 11.3 327 11.1
2009-07-23 08:06:59 51°19.518 2°50.217 335.6 11.3 327 11
2009-07-23 08:07:04 51°19.531 2°50.204 335.4 11.3 326 11.1
2009-07-23 08:07:09 51°19.545 2°50.19 335.6 11.3 328 11.4
2009-07-23 08:07:14 51°19.558 2°50.177 336 11.3 328 11.5
2009-07-23 08:07:19 51°19.571 2°50.164 336.9 11.3 328 11.5
2009-07-23 08:07:24 51°19.584 2°50.151 336.7 11.3 327 11.6
2009-07-23 08:07:29 51°19.598 2°50.138 336.7 11.3 328 11.7
2009-07-23 08:07:34 51°19.611 2°50.124 337.1 11.3 328 11.9
2009-07-23 08:07:39 51°19.625 2°50.111 336.9 11.3 328 12.2
2009-07-23 08:07:44 51°19.638 2°50.097 336.9 11.4 328 12.6
2009-07-23 08:07:49 51°19.651 2°50.084 337.1 11.4 328 12.8
2009-07-23 08:07:54 51°19.665 2°50.07 337.1 11.4 328 13.2
2009-07-23 08:07:59 51°19.678 2°50.057 337.2 11.4 328 13.3
2009-07-23 08:08:04 51°19.691 2°50.044 337.2 11.4 328 13.5
2009-07-23 08:08:09 51°19.705 2°50.03 337.3 11.4 328 13.6
2009-07-23 08:08:14 51°19.718 2°50.017 337 11.4 328 13.7
2009-07-23 08:08:19 51°19.731 2°50.003 337 11.4 327 13.9
2009-07-23 08:08:24 51°19.745 2°49.99 337 11.3 329 13.9
2009-07-23 08:08:29 51°19.758 2°49.977 337.2 11.4 327 14
2009-07-23 08:08:34 51°19.771 2°49.964 337.2 11.3 328 14.2
2009-07-23 08:08:39 51°19.785 2°49.95 337.3 11.3 328 14.3
2009-07-23 08:08:44 51°19.798 2°49.937 337 11.3 327 14.2
2009-07-23 08:08:49 51°19.811 2°49.924 336.9 11.3 329 14.3
2009-07-23 08:08:54 51°19.824 2°49.909 337 11.4 326 14.4
2009-07-23 08:08:59 51°19.838 2°49.896 336.7 11.4 328 14.5
2009-07-23 08:09:04 51°19.851 2°49.883 336.8 11.4 327 14.5
2009-07-23 08:09:09 51°19.864 2°49.869 337 11.3 328 14.5
2009-07-23 08:09:14 51°19.877 2°49.855 336.9 11.4 326 14.6
2009-07-23 08:09:19 51°19.89 2°49.841 335.9 11.4 326 14.8
2009-07-23 08:09:24 51°19.903 2°49.827 335.7 11.4 325 15
2009-07-23 08:09:29 51°19.916 2°49.812 334.8 11.4 325 15.3
2009-07-23 08:09:34 51°19.929 2°49.797 334.4 11.4 324 15.5
2009-07-23 08:09:39 51°19.941 2°49.782 334.2 11.4 325 15.8
2009-07-23 08:09:44 51°19.954 2°49.767 334 11.4 323 15.9
2009-07-23 08:09:49 51°19.967 2°49.752 333.7 11.5 324 16.2
2009-07-23 08:09:54 51°19.98 2°49.737 333.4 11.5 323 16.3
2009-07-23 08:09:59 51°19.992 2°49.722 333.2 11.5 322 16.4
2009-07-23 08:10:04 51°20.005 2°49.706 332.5 11.5 322 16.7
2009-07-23 08:10:09 51°20.017 2°49.69 332.2 11.5 322 16.8
2009-07-23 08:10:14 51°20.03 2°49.675 332.9 11.4 323 17
2009-07-23 08:10:19 51°20.043 2°49.66 333.3 11.5 323 17.2
2009-07-23 08:10:24 51°20.055 2°49.644 333.4 11.5 323 17.4
2009-07-23 08:10:29 51°20.068 2°49.629 333.3 11.5 322 17.8
2009-07-23 08:10:34 51°20.08 2°49.614 333.5 11.4 324 17.9
2009-07-23 08:10:39 51°20.093 2°49.598 333.7 11.5 322 18
2009-07-23 08:10:44 51°20.106 2°49.583 333.7 11.4 323 18.2
2009-07-23 08:10:49 51°20.118 2°49.568 333.4 11.4 322 18.3
2009-07-23 08:10:54 51°20.131 2°49.552 333.4 11.4 322 18.7
2009-07-23 08:10:59 51°20.143 2°49.536 332.9 11.4 322 18.9
2009-07-23 08:11:04 51°20.156 2°49.521 332.5 11.5 321 19
2009-07-23 08:11:09 51°20.168 2°49.505 332 11.5 322 19.3
2009-07-23 08:11:14 51°20.181 2°49.489 332.5 11.5 321 19.7
2009-07-23 08:11:19 51°20.193 2°49.473 332 11.5 320 19.8
2009-07-23 08:11:24 51°20.205 2°49.457 331.9 11.4 322 19.9
2009-07-23 08:11:29 51°20.218 2°49.441 332.5 11.5 321 20
2009-07-23 08:11:34 51°20.23 2°49.425 332.5 11.4 322 20.3
2009-07-23 08:11:39 51°20.243 2°49.41 332.8 11.5 322 20.3
2009-07-23 08:11:44 51°20.255 2°49.394 332.9 11.4 322 20.6
2009-07-23 08:11:49 51°20.268 2°49.378 332.8 11.5 321 20.7
2009-07-23 08:11:54 51°20.28 2°49.362 332 11.4 321 20.9
2009-07-23 08:11:59 51°20.292 2°49.346 331.8 11.5 320 21.3
2009-07-23 08:12:04 51°20.305 2°49.33 331.7 11.5 321 21.3
2009-07-23 08:12:09 51°20.317 2°49.314 331.8 11.5 320 21.4
2009-07-23 08:12:14 51°20.33 2°49.298 331.7 11.5 321 21.5
2009-07-23 08:12:19 51°20.342 2°49.281 331.6 11.5 321 21.4
2009-07-23 08:12:24 51°20.354 2°49.265 331.8 11.5 321 21.6
2009-07-23 08:12:29 51°20.367 2°49.249 331.9 11.5 321 21.5
2009-07-23 08:12:34 51°20.379 2°49.233 331.9 11.5 321 21.5
2009-07-23 08:12:39 51°20.391 2°49.217 331.9 11.5 321 21.5
2009-07-23 08:12:44 51°20.403 2°49.201 332 11.5 320 21.7
2009-07-23 08:12:49 51°20.416 2°49.185 331.8 11.4 321 21.5
2009-07-23 08:12:54 51°20.428 2°49.169 332.4 11.4 322 21.6
2009-07-23 08:12:59 51°20.441 2°49.154 333 11.5 322 21.8
2009-07-23 08:13:04 51°20.453 2°49.138 333.4 11.5 322 21.7
2009-07-23 08:13:09 51°20.466 2°49.123 334 11.4 323 21.7
2009-07-23 08:13:14 51°20.478 2°49.107 333.6 11.5 321 21.6
2009-07-23 08:13:19 51°20.491 2°49.091 333.2 11.4 322 21.6
2009-07-23 08:13:24 51°20.503 2°49.075 333.3 11.5 321 21.7
2009-07-23 08:13:29 51°20.516 2°49.059 332.8 11.5 321 21.7
2009-07-23 08:13:34 51°20.528 2°49.044 332.9 11.5 322 21.6
2009-07-23 08:13:39 51°20.541 2°49.028 333.4 11.5 321 21.7
2009-07-23 08:13:44 51°20.553 2°49.012 333.2 11.4 323 21.8
2009-07-23 08:13:49 51°20.566 2°48.997 333.6 11.5 322 21.8
2009-07-23 08:13:54 51°20.579 2°48.982 334.2 11.4 323 21.8
2009-07-23 08:13:59 51°20.591 2°48.966 333.8 11.5 322 21.7
2009-07-23 08:14:04 51°20.604 2°48.951 334.1 11.4 324 21.6
2009-07-23 08:14:09 51°20.616 2°48.935 334.2 11.4 323 21.7
2009-07-23 08:14:14 51°20.629 2°48.92 334.5 11.4 323 21.6
2009-07-23 08:14:19 51°20.641 2°48.904 333.7 11.5 322 21.7
2009-07-23 08:14:24 51°20.654 2°48.889 333.7 11.4 323 21.5
2009-07-23 08:14:29 51°20.666 2°48.873 333.7 11.4 322 21.4
2009-07-23 08:14:34 51°20.679 2°48.857 333.6 11.5 321 21.4
2009-07-23 08:14:39 51°20.691 2°48.842 333.2 11.4 322 21.5
2009-07-23 08:14:44 51°20.703 2°48.826 333 11.5 321 21.4
2009-07-23 08:14:49 51°20.716 2°48.81 333.5 11.4 323 21.3
2009-07-23 08:14:54 51°20.729 2°48.795 333.7 11.4 322 21.2
2009-07-23 08:14:59 51°20.741 2°48.779 333.6 11.4 322 21.2
2009-07-23 08:15:04 51°20.754 2°48.764 334.1 11.4 323 21.3
2009-07-23 08:15:09 51°20.766 2°48.748 333.5 11.5 321 21.1
2009-07-23 08:15:14 51°20.779 2°48.732 332.9 11.5 321 21.1
2009-07-23 08:15:19 51°20.791 2°48.716 332.9 11.4 322 20.9
2009-07-23 08:15:24 51°20.804 2°48.701 333.2 11.5 322 20.7
2009-07-23 08:15:29 51°20.816 2°48.685 333.2 11.5 322 20.6
2009-07-23 08:15:34 51°20.829 2°48.67 334 11.5 323 20.5
2009-07-23 08:15:39 51°20.841 2°48.654 333.7 11.5 321 20.3
2009-07-23 08:15:44 51°20.854 2°48.639 333.2 11.4 322 20.3
2009-07-23 08:15:49 51°20.866 2°48.622 332.7 11.5 320 20.2
2009-07-23 08:15:54 51°20.879 2°48.607 332.3 11.4 322 20.1
2009-07-23 08:15:59 51°20.891 2°48.591 332.6 11.5 322 20.1
2009-07-23 08:16:04 51°20.904 2°48.575 333.3 11.4 322 19.9
2009-07-23 08:16:09 51°20.916 2°48.56 333.2 11.5 321 20
2009-07-23 08:16:14 51°20.929 2°48.544 332.7 11.5 322 19.9
2009-07-23 08:16:19 51°20.941 2°48.528 332.4 11.5 321 19.9
2009-07-23 08:16:24 51°20.954 2°48.512 332.5 11.5 322 19.8
2009-07-23 08:16:29 51°20.966 2°48.496 332.1 11.5 321 19.5
2009-07-23 08:16:34 51°20.979 2°48.48 332.3 11.5 322 19.3
2009-07-23 08:16:39 51°20.991 2°48.465 333.2 11.5 323 19.1
2009-07-23 08:16:44 51°21.004 2°48.449 333.2 11.5 321 19.3
2009-07-23 08:16:49 51°21.016 2°48.434 333 11.5 322 19.1
2009-07-23 08:16:54 51°21.029 2°48.418 333.4 11.4 324 19.2
2009-07-23 08:16:59 51°21.042 2°48.403 334 11.5 323 19.1
2009-07-23 08:17:04 51°21.054 2°48.388 334 11.4 324 19.2
2009-07-23 08:17:09 51°21.067 2°48.373 334.3 11.4 324 19.3
2009-07-23 08:17:14 51°21.08 2°48.358 334.5 11.4 323 19.3
2009-07-23 08:17:19 51°21.093 2°48.343 334 11.4 324 19.2
2009-07-23 08:17:24 51°21.105 2°48.328 334.1 11.5 323 19.4
2009-07-23 08:17:29 51°21.118 2°48.313 334.3 11.5 324 19.5
2009-07-23 08:17:34 51°21.131 2°48.298 334.6 11.4 323 19.7
2009-07-23 08:17:39 51°21.144 2°48.283 333.8 11.4 323 19.5
2009-07-23 08:17:44 51°21.157 2°48.268 334.8 11.4 324 19.4
2009-07-23 08:17:49 51°21.169 2°48.253 334.7 11.5 323 19.2
2009-07-23 08:17:54 51°21.182 2°48.237 333.4 11.5 322 19.4
2009-07-23 08:17:59 51°21.195 2°48.222 333.2 11.5 323 19.5
2009-07-23 08:18:04 51°21.207 2°48.206 333.7 11.5 323 19.7
2009-07-23 08:18:09 51°21.22 2°48.191 334 11.5 323 20.1
2009-07-23 08:18:14 51°21.233 2°48.175 334 11.6 323 20.2
2009-07-23 08:18:19 51°21.246 2°48.16 334 11.6 323 20.6
2009-07-23 08:18:24 51°21.258 2°48.144 334 11.6 323 20.8
2009-07-23 08:18:29 51°21.271 2°48.129 334 11.6 323 20.7
2009-07-23 08:18:34 51°21.284 2°48.113 334 11.6 323 21
2009-07-23 08:18:39 51°21.297 2°48.097 334 11.6 323 21.1
2009-07-23 08:18:44 51°21.31 2°48.082 333.6 11.6 322 21.4
2009-07-23 08:18:49 51°21.322 2°48.066 333.1 11.6 321 21.4
2009-07-23 08:18:54 51°21.335 2°48.049 332.5 11.7 321 21.4
2009-07-23 08:18:59 51°21.348 2°48.034 332.6 11.6 323 21.4
2009-07-23 08:19:04 51°21.361 2°48.018 333.2 11.6 323 21.4
2009-07-23 08:19:09 51°21.373 2°48.002 333.2 11.7 322 21.4
2009-07-23 08:19:14 51°21.386 2°47.986 332.7 11.7 321 21.5
2009-07-23 08:19:19 51°21.399 2°47.97 332.5 11.6 322 21.2
2009-07-23 08:19:24 51°21.411 2°47.955 333.2 11.6 322 20.9
2009-07-23 08:19:29 51°21.424 2°47.939 333.4 11.7 322 21.1
2009-07-23 08:19:34 51°21.437 2°47.923 333.3 11.6 323 21.6
2009-07-23 08:19:39 51°21.45 2°47.908 333.4 11.6 323 21.9
2009-07-23 08:19:44 51°21.463 2°47.892 333.9 11.6 323 22.1
2009-07-23 08:19:49 51°21.476 2°47.877 334 11.6 323 22
2009-07-23 08:19:54 51°21.489 2°47.861 333.6 11.6 322 21.5
2009-07-23 08:19:59 51°21.501 2°47.845 333.1 11.7 322 21.8
2009-07-23 08:20:04 51°21.514 2°47.83 332.7 11.6 323 21.7
2009-07-23 08:20:09 51°21.527 2°47.814 333.2 11.7 322 21.4
2009-07-23 08:20:14 51°21.54 2°47.798 333.2 11.6 324 21.2
2009-07-23 08:20:19 51°21.553 2°47.783 333.6 11.7 323 21.9
2009-07-23 08:20:24 51°21.566 2°47.768 333.9 11.6 324 21.7
2009-07-23 08:20:29 51°21.579 2°47.752 333.9 11.6 323 22.4
2009-07-23 08:20:34 51°21.591 2°47.737 333.8 11.6 324 22.7
2009-07-23 08:20:39 51°21.605 2°47.722 334.3 11.6 325 23
2009-07-23 08:20:44 51°21.618 2°47.707 334 11.7 323 23
2009-07-23 08:20:49 51°21.631 2°47.692 333.6 11.6 325 23
2009-07-23 08:20:54 51°21.644 2°47.677 334 11.6 324 23.2
2009-07-23 08:20:59 51°21.657 2°47.662 333.9 11.6 324 23.3
2009-07-23 08:21:04 51°21.67 2°47.647 333.6 11.6 324 23.2
2009-07-23 08:21:09 51°21.683 2°47.632 333.5 11.6 324 23.2
2009-07-23 08:21:14 51°21.696 2°47.617 333.3 11.6 324 23.2
2009-07-23 08:21:19 51°21.709 2°47.602 333.3 11.6 325 23.3
2009-07-23 08:21:24 51°21.722 2°47.587 333.4 11.6 323 23.5
2009-07-23 08:21:29 51°21.735 2°47.572 333.4 11.6 324 23.2
2009-07-23 08:21:34 51°21.748 2°47.556 333.3 11.6 324 23
2009-07-23 08:21:39 51°21.761 2°47.541 333.4 11.6 324 22.6
2009-07-23 08:21:44 51°21.774 2°47.527 333.7 11.5 325 22.1
2009-07-23 08:21:49 51°21.787 2°47.511 333.9 11.6 324 22.3
2009-07-23 08:21:54 51°21.8 2°47.497 333.8 11.5 325 22.3
2009-07-23 08:21:59 51°21.813 2°47.481 333.9 11.6 324 22.7
2009-07-23 08:22:04 51°21.826 2°47.467 333.5 11.5 325 22.9
2009-07-23 08:22:09 51°21.839 2°47.452 333.6 11.5 324 23.2
2009-07-23 08:22:14 51°21.852 2°47.437 333.8 11.5 324 23.2
2009-07-23 08:22:19 51°21.865 2°47.422 333.8 11.5 324 23.3
2009-07-23 08:22:24 51°21.878 2°47.407 333.2 11.5 323 23.1
2009-07-23 08:22:29 51°21.891 2°47.392 333 11.5 324 23.4
2009-07-23 08:22:34 51°21.904 2°47.377 333.2 11.5 325 23.2
2009-07-23 08:22:39 51°21.917 2°47.363 333.6 11.5 325 23.4
2009-07-23 08:22:44 51°21.93 2°47.348 333.8 11.5 324 23.4
2009-07-23 08:22:49 51°21.943 2°47.333 333.4 11.5 324 23.2
2009-07-23 08:22:54 51°21.955 2°47.317 332.8 11.5 323 23.2
2009-07-23 08:22:59 51°21.968 2°47.303 332.6 11.5 324 23.2
2009-07-23 08:23:04 51°21.981 2°47.288 332.9 11.5 324 23.3
2009-07-23 08:23:09 51°21.994 2°47.273 333.3 11.5 325 23.1
2009-07-23 08:23:14 51°22.007 2°47.258 333.7 11.5 325 22.9
2009-07-23 08:23:19 51°22.02 2°47.243 333.5 11.5 324 22.8
2009-07-23 08:23:24 51°22.033 2°47.228 333.5 11.5 324 22.7
2009-07-23 08:23:29 51°22.046 2°47.214 333.2 11.4 324 22.9
2009-07-23 08:23:34 51°22.059 2°47.199 333.5 11.4 325 22.7
2009-07-23 08:23:39 51°22.072 2°47.185 334 11.4 325 22.4
2009-07-23 08:23:44 51°22.084 2°47.17 334 11.4 325 22.3
2009-07-23 08:23:49 51°22.097 2°47.155 333.6 11.4 323 22.2
2009-07-23 08:23:54 51°22.11 2°47.14 332.9 11.4 324 22.1
2009-07-23 08:23:59 51°22.122 2°47.125 332.5 11.4 322 21.7
2009-07-23 08:24:04 51°22.135 2°47.11 331.9 11.3 325 21.5
2009-07-23 08:24:09 51°22.148 2°47.095 332.7 11.3 324 21.4
2009-07-23 08:24:14 51°22.16 2°47.08 332.9 11.3 324 21.2
2009-07-23 08:24:19 51°22.173 2°47.066 333.3 11.3 325 20.8
2009-07-23 08:24:24 51°22.186 2°47.051 333.6 11.3 322 20.6
2009-07-23 08:24:29 51°22.198 2°47.035 332.7 11.3 323 20.4
2009-07-23 08:24:34 51°22.211 2°47.02 332.5 11.3 323 20
2009-07-23 08:24:39 51°22.223 2°47.005 332.6 11.3 323 19.2
2009-07-23 08:24:44 51°22.236 2°46.991 333.2 11.3 324 18.5
2009-07-23 08:24:49 51°22.248 2°46.975 333.2 11.3 322 16.8
2009-07-23 08:24:54 51°22.261 2°46.96 332.3 11.3 322 15.6
2009-07-23 08:24:59 51°22.273 2°46.944 332.1 11.2 321 13.8
2009-07-23 08:25:04 51°22.285 2°46.928 331.4 11.2 320 15.8
2009-07-23 08:25:09 51°22.297 2°46.913 331.1 11.1 321 16.9
2009-07-23 08:25:14 51°22.309 2°46.897 331.5 11.1 322 17.4
2009-07-23 08:25:19 51°22.322 2°46.883 333 11.1 324 17.7
2009-07-23 08:25:24 51°22.334 2°46.868 332.6 11.1 322 17.6
2009-07-23 08:25:29 51°22.346 2°46.853 332.5 11.1 323 17.5
2009-07-23 08:25:34 51°22.359 2°46.838 332.9 11.2 323 17.5
2009-07-23 08:25:39 51°22.371 2°46.824 333.3 11.1 324 17.2
2009-07-23 08:25:44 51°22.383 2°46.809 333.8 11.2 323 17.2
2009-07-23 08:25:49 51°22.396 2°46.794 333.5 11.2 323 16.6
2009-07-23 08:25:54 51°22.408 2°46.779 333.3 11.2 323 15.4
2009-07-23 08:25:59 51°22.42 2°46.764 333.8 11.2 322 12.9
2009-07-23 08:26:04 51°22.433 2°46.749 333.6 11.3 321 14.4
2009-07-23 08:26:09 51°22.445 2°46.733 333.2 11.3 322 15.2
2009-07-23 08:26:14 51°22.458 2°46.718 333.6 11.2 323 16.1
2009-07-23 08:26:19 51°22.47 2°46.703 334 11.3 322 16.7
2009-07-23 08:26:24 51°22.482 2°46.687 333.5 11.3 322 17.5
2009-07-23 08:26:29 51°22.495 2°46.672 332.7 11.3 322 17.7
2009-07-23 08:26:34 51°22.507 2°46.657 332.7 11.3 322 18.2
2009-07-23 08:26:39 51°22.519 2°46.641 332.5 11.4 321 18.5
2009-07-23 08:26:44 51°22.532 2°46.626 331.9 11.3 323 18.6
2009-07-23 08:26:49 51°22.544 2°46.611 332.5 11.3 323 17.9
2009-07-23 08:26:54 51°22.557 2°46.596 333.1 11.3 323 18.4
2009-07-23 08:26:59 51°22.569 2°46.581 333.2 11.2 324 19.2
2009-07-23 08:27:04 51°22.582 2°46.566 333.6 11.2 324 19.8
2009-07-23 08:27:09 51°22.595 2°46.552 333.9 11.2 324 19.9
2009-07-23 08:27:14 51°22.607 2°46.537 333.5 11.3 323 20.5
2009-07-23 08:27:19 51°22.619 2°46.522 332.7 11.2 323 20.5
2009-07-23 08:27:24 51°22.632 2°46.507 332.5 11.2 323 20.4
2009-07-23 08:27:29 51°22.644 2°46.491 332.3 11.3 322 20.9
2009-07-23 08:27:34 51°22.656 2°46.476 332 11.3 323 21.1
2009-07-23 08:27:39 51°22.669 2°46.461 331.9 11.3 322 21.1
2009-07-23 08:27:44 51°22.681 2°46.446 332.5 11.3 323 21.1
2009-07-23 08:27:49 51°22.694 2°46.431 332.9 11.3 323 21.2
2009-07-23 08:27:54 51°22.706 2°46.416 333.2 11.3 324 21.2
2009-07-23 08:27:59 51°22.719 2°46.401 333.8 11.3 324 21
2009-07-23 08:28:04 51°22.731 2°46.386 334 11.3 323 19.8
2009-07-23 08:28:09 51°22.744 2°46.371 333.3 11.3 323 21
2009-07-23 08:28:14 51°22.756 2°46.356 333.2 11.3 322 21.6
2009-07-23 08:28:19 51°22.769 2°46.341 333.2 11.3 324 22
2009-07-23 08:28:24 51°22.781 2°46.326 333.7 11.3 323 22.2
2009-07-23 08:28:29 51°22.794 2°46.311 333.8 11.3 324 22.4
2009-07-23 08:28:34 51°22.807 2°46.296 334 11.3 324 22.6
2009-07-23 08:28:39 51°22.819 2°46.281 334 11.3 323 22.7
2009-07-23 08:28:44 51°22.832 2°46.266 333.5 11.3 323 22.9
2009-07-23 08:28:49 51°22.844 2°46.251 333.2 11.3 323 23.4
2009-07-23 08:28:54 51°22.857 2°46.236 332.3 11.3 322 23.6
2009-07-23 08:28:59 51°22.869 2°46.221 332.5 11.2 324 23.5
2009-07-23 08:29:04 51°22.882 2°46.206 333.3 11.3 323 23.6
2009-07-23 08:29:09 51°22.894 2°46.191 333.4 11.2 325 23.6
2009-07-23 08:29:14 51°22.907 2°46.177 334 11.3 323 23.5
2009-07-23 08:29:19 51°22.919 2°46.161 333 11.3 322 23.4
2009-07-23 08:29:24 51°22.932 2°46.147 332.9 11.3 324 23.4
2009-07-23 08:29:29 51°22.945 2°46.132 333.2 11.3 323 23.1
2009-07-23 08:29:34 51°22.958 2°46.117 333.3 11.2 326 23
2009-07-23 08:29:39 51°22.97 2°46.102 334.1 11.4 322 22.6
2009-07-23 08:29:44 51°22.983 2°46.087 333.2 11.4 323 22.6
2009-07-23 08:29:49 51°22.995 2°46.071 332.9 11.4 323 22.7
2009-07-23 08:29:54 51°23.008 2°46.056 333.2 11.3 323 22.9
2009-07-23 08:29:58 51°23.018 2°46.044 333.3 11.3 323 23.4
2009-07-23 08:30:04 51°23.033 2°46.026 334.1 11.3 324 23.3
2009-07-23 08:30:09 51°23.045 2°46.011 333.6 11.4 321 23.6
2009-07-23 08:30:14 51°23.058 2°45.996 333.1 11.3 324 24.1
2009-07-23 08:30:19 51°23.07 2°45.981 334 11.2 323 24
2009-07-23 08:30:24 51°23.083 2°45.966 334 11.3 324 23.8
2009-07-23 08:30:29 51°23.095 2°45.951 334 11.3 322 23.8
2009-07-23 08:30:34 51°23.107 2°45.936 333.4 11.3 322 24.5
2009-07-23 08:30:39 51°23.12 2°45.921 332.8 11.3 322 24.7
2009-07-23 08:30:44 51°23.132 2°45.905 332.4 11.3 322 25.1
2009-07-23 08:30:49 51°23.144 2°45.889 332.4 11.3 321 25.1
2009-07-23 08:30:54 51°23.157 2°45.874 331.9 11.3 322 25.3
2009-07-23 08:30:58 51°23.166 2°45.861 332.2 11.3 321 25.5
2009-07-23 08:31:04 51°23.181 2°45.844 333 11.2 324 25.8
2009-07-23 08:31:09 51°23.193 2°45.828 333.3 11.3 322 25.9
2009-07-23 08:31:14 51°23.206 2°45.813 333.4 11.3 323 26
2009-07-23 08:31:18 51°23.216 2°45.801 333.1 11.3 322 26.1
2009-07-23 08:31:22 51°23.226 2°45.788 332.6 11.3 322 25.5
2009-07-23 08:31:29 51°23.243 2°45.766 332.3 11.3 321 24.7
2009-07-23 08:31:34 51°23.255 2°45.75 331.9 11.2 322 25.7
2009-07-23 08:31:38 51°23.265 2°45.738 332.2 11.3 322 26
2009-07-23 08:31:43 51°23.277 2°45.722 332.4 11.3 320 25.4
2009-07-23 08:31:49 51°23.292 2°45.704 332.7 11.2 323 25.2
2009-07-23 08:31:54 51°23.304 2°45.689 333.2 11.2 322 25.7
2009-07-23 08:31:59 51°23.316 2°45.674 333.6 11.2 323 26.2
2009-07-23 08:32:04 51°23.329 2°45.659 333.7 11.2 323 26.5
2009-07-23 08:32:08 51°23.339 2°45.647 334.4 11.2 323 26.3
2009-07-23 08:32:14 51°23.353 2°45.628 334 11.2 322 26
2009-07-23 08:32:19 51°23.366 2°45.614 333.9 11.2 323 25.9
2009-07-23 08:32:24 51°23.378 2°45.598 334.2 11.2 322 26.1
2009-07-23 08:32:28 51°23.388 2°45.586 333.7 11.3 321 26.5
2009-07-23 08:32:34 51°23.402 2°45.567 333.2 11.2 322 26.4
2009-07-23 08:32:39 51°23.415 2°45.552 333.5 11.2 321 26.3
2009-07-23 08:32:43 51°23.424 2°45.54 333.5 11.2 322 26
2009-07-23 08:32:49 51°23.439 2°45.521 333.4 11.2 321 26.2
2009-07-23 08:32:54 51°23.451 2°45.506 333.1 11.2 321 26.4
2009-07-23 08:32:58 51°23.461 2°45.493 332.8 11.3 320 26.2
2009-07-23 08:33:04 51°23.475 2°45.474 333.2 11.2 322 26.1
2009-07-23 08:33:09 51°23.487 2°45.459 333.3 11.2 322 26.4
2009-07-23 08:33:14 51°23.5 2°45.444 334.1 11.2 323 26.3
2009-07-23 08:33:18 51°23.51 2°45.431 334 11.2 321 26.3
2009-07-23 08:33:24 51°23.524 2°45.413 334 11.2 322 26.1
2009-07-23 08:33:29 51°23.536 2°45.398 333.7 11.2 321 26.3
2009-07-23 08:33:34 51°23.549 2°45.382 333.8 11.2 322 26.2
2009-07-23 08:33:39 51°23.561 2°45.367 334 11.2 322 26.4
2009-07-23 08:33:43 51°23.571 2°45.354 334.1 11.3 322 25.7
2009-07-23 08:33:49 51°23.586 2°45.336 334.3 11.3 322 26
2009-07-23 08:33:54 51°23.598 2°45.321 333.9 11.2 322 26.4
2009-07-23 08:33:59 51°23.61 2°45.305 333.8 11.2 321 26.4
2009-07-23 08:34:04 51°23.622 2°45.29 334.2 11.2 322 26.2
2009-07-23 08:34:08 51°23.632 2°45.277 334.1 11.3 321 26
2009-07-23 08:34:14 51°23.646 2°45.258 333.7 11.3 322 26
2009-07-23 08:34:19 51°23.658 2°45.243 333.6 11.2 322 25.8
2009-07-23 08:34:24 51°23.671 2°45.227 333.5 11.3 321 26.2
2009-07-23 08:34:29 51°23.683 2°45.212 333.6 11.2 322 25.7
2009-07-23 08:34:34 51°23.695 2°45.196 333.7 11.2 321 26.4
2009-07-23 08:34:39 51°23.707 2°45.181 333.9 11.2 323 26.3
2009-07-23 08:34:44 51°23.719 2°45.165 334.2 11.3 321 26
2009-07-23 08:34:49 51°23.732 2°45.15 334 11.3 322 25.9
2009-07-23 08:34:54 51°23.744 2°45.135 333.7 11.3 321 26.3
2009-07-23 08:34:59 51°23.756 2°45.119 333.2 11.3 321 26.5
2009-07-23 08:35:04 51°23.768 2°45.103 333.2 11.3 321 25.8
2009-07-23 08:35:09 51°23.78 2°45.087 333.2 11.2 321 25.7
2009-07-23 08:35:14 51°23.793 2°45.072 333.5 11.2 321 25.1
2009-07-23 08:35:19 51°23.805 2°45.056 333.4 11.3 321 25
2009-07-23 08:35:24 51°23.817 2°45.042 333.7 11.2 323 25.1
2009-07-23 08:35:29 51°23.829 2°45.026 334.4 11.3 321 25.4
2009-07-23 08:35:34 51°23.842 2°45.011 333.7 11.2 324 25.5
2009-07-23 08:35:38 51°23.852 2°44.999 334 11.2 323 25.6
2009-07-23 08:35:44 51°23.867 2°44.983 334.9 10.7 330 25.2
2009-07-23 08:35:49 51°23.88 2°44.973 340.5 10.5 335 24.6
2009-07-23 08:35:54 51°23.893 2°44.966 347 10.1 343 25.5
2009-07-23 08:35:58 51°23.904 2°44.962 353.4 9.9 349 26.2
2009-07-23 08:36:04 51°23.92 2°44.96 0.1 9.5 357 26.3
2009-07-23 08:36:09 51°23.933 2°44.961 6.2 9.4 2 26.3
2009-07-23 08:36:14 51°23.946 2°44.964 13.5 9.3 11 26
2009-07-23 08:36:18 51°23.956 2°44.967 17.1 9.5 8 26.3
2009-07-23 08:36:24 51°23.971 2°44.972 17.8 9.5 13 25.9
2009-07-23 08:36:28 51°23.981 2°44.977 21.2 9.5 16 25.8
2009-07-23 08:36:34 51°23.997 2°44.982 21.9 9.6 16 25.8
2009-07-23 08:36:39 51°24.009 2°44.991 23.5 9.7 20 25.5
2009-07-23 08:36:44 51°24.022 2°44.995 24 9.7 15 25.8
2009-07-23 08:36:49 51°24.035 2°45.004 25.5 9.7 23 25.7
2009-07-23 08:36:54 51°24.048 2°45.01 25.9 9.8 19 25.3
2009-07-23 08:36:59 51°24.06 2°45.019 26.6 9.8 23 24
2009-07-23 08:37:04 51°24.073 2°45.026 27.3 9.8 20 25.3
2009-07-23 08:37:09 51°24.086 2°45.035 27.7 9.8 23 25.4
2009-07-23 08:37:14 51°24.098 2°45.043 27.7 9.8 22 24.8
2009-07-23 08:37:19 51°24.111 2°45.052 28.8 9.8 25 25.6
2009-07-23 08:37:24 51°24.123 2°45.06 29.4 9.9 22 25.6
2009-07-23 08:37:29 51°24.136 2°45.07 29.9 9.9 27 25.7
2009-07-23 08:37:34 51°24.148 2°45.078 30.1 9.9 23 25.9
2009-07-23 08:37:38 51°24.158 2°45.086 29.8 9.9 26 25.1
2009-07-23 08:37:44 51°24.173 2°45.097 30.1 9.9 24 25.8
2009-07-23 08:37:49 51°24.185 2°45.106 30.7 9.9 25 25.7
2009-07-23 08:37:54 51°24.198 2°45.115 30.4 9.9 25 25.7
2009-07-23 08:37:58 51°24.208 2°45.123 30.6 9.9 25 25.3
2009-07-23 08:38:04 51°24.223 2°45.134 30 9.9 25 25.4
2009-07-23 08:38:09 51°24.235 2°45.144 30.7 9.9 28 25.5
2009-07-23 08:38:14 51°24.247 2°45.155 31.8 9.8 33 25.7
2009-07-23 08:38:18 51°24.255 2°45.165 36.4 9.7 37 23.7
2009-07-23 08:38:24 51°24.269 2°45.179 38.1 9.8 34 25.4
2009-07-23 08:38:29 51°24.279 2°45.194 40.5 9.7 41 25.8
2009-07-23 08:38:34 51°24.29 2°45.207 42 9.7 39 25.3
2009-07-23 08:38:38 51°24.298 2°45.219 43.2 9.7 42 25.4
2009-07-23 08:38:44 51°24.31 2°45.236 44.6 9.8 42 25.2
2009-07-23 08:38:49 51°24.319 2°45.252 45.4 9.8 44 25.1
2009-07-23 08:38:54 51°24.329 2°45.267 46.3 9.8 45 25.4
2009-07-23 08:38:59 51°24.339 2°45.283 47.3 9.9 47 25.1
2009-07-23 08:39:04 51°24.348 2°45.298 47.3 9.8 44 23.8
2009-07-23 08:39:09 51°24.357 2°45.315 48.6 9.8 49 25.1
2009-07-23 08:39:14 51°24.367 2°45.33 48.5 9.8 45 25.8
2009-07-23 08:39:19 51°24.376 2°45.346 48.3 9.8 50 25.8
2009-07-23 08:39:24 51°24.385 2°45.363 49.2 9.9 49 25.9
2009-07-23 08:39:29 51°24.393 2°45.38 50.9 9.8 52 25.7
2009-07-23 08:39:34 51°24.401 2°45.398 53.7 9.8 56 25.5
2009-07-23 08:39:39 51°24.409 2°45.416 54.7 9.8 54 25.4
2009-07-23 08:39:44 51°24.416 2°45.434 56.1 9.9 59 25.6
2009-07-23 08:39:49 51°24.423 2°45.453 57.6 9.8 58 25.1
2009-07-23 08:39:54 51°24.43 2°45.472 58.1 9.8 60 23.8
2009-07-23 08:39:59 51°24.436 2°45.491 59.6 9.8 60 25.2
2009-07-23 08:40:04 51°24.443 2°45.509 59.5 9.8 60 25.5
2009-07-23 08:40:09 51°24.449 2°45.529 60.6 9.8 63 25.6
2009-07-23 08:40:14 51°24.457 2°45.547 60.3 9.8 59 25.4
2009-07-23 08:40:18 51°24.462 2°45.563 60.4 9.8 64 25.3
2009-07-23 08:40:24 51°24.469 2°45.585 60.9 9.8 59 25.3
2009-07-23 08:40:29 51°24.476 2°45.605 60.6 9.8 63 25.3
2009-07-23 08:40:34 51°24.482 2°45.624 60.9 9.8 61 25.5
2009-07-23 08:40:39 51°24.488 2°45.643 61.2 9.9 63 25.7
2009-07-23 08:40:44 51°24.494 2°45.663 62 9.9 64 25.1
2009-07-23 08:40:49 51°24.501 2°45.683 62.6 9.9 62 25.3
2009-07-23 08:40:54 51°24.507 2°45.702 62.1 10 63 25.1
2009-07-23 08:40:59 51°24.513 2°45.722 62.9 9.9 64 25
2009-07-23 08:41:04 51°24.519 2°45.742 62.7 9.9 63 24.8
2009-07-23 08:41:09 51°24.525 2°45.762 62.2 10 64 25.1
2009-07-23 08:41:14 51°24.531 2°45.782 62.9 9.9 64 24.3
2009-07-23 08:41:19 51°24.537 2°45.801 63 9.9 63 24.7
2009-07-23 08:41:24 51°24.544 2°45.821 62.7 9.9 63 25
2009-07-23 08:41:29 51°24.55 2°45.84 62 9.9 61 24.7
2009-07-23 08:41:34 51°24.557 2°45.859 60.1 9.8 60 25.1
2009-07-23 08:41:39 51°24.565 2°45.878 58.9 9.8 57 24.9
2009-07-23 08:41:44 51°24.572 2°45.896 58.2 9.9 58 24.6
2009-07-23 08:41:49 51°24.58 2°45.914 56.6 9.8 54 24.7
2009-07-23 08:41:54 51°24.588 2°45.932 55.7 9.8 55 24.6
2009-07-23 08:41:59 51°24.596 2°45.949 55.1 9.8 54 24.7
2009-07-23 08:42:04 51°24.604 2°45.967 54.2 9.9 53 24.2
2009-07-23 08:42:09 51°24.612 2°45.985 54.5 9.9 54 24.4
2009-07-23 08:42:14 51°24.621 2°46.002 54.1 9.9 52 24.3
2009-07-23 08:42:19 51°24.629 2°46.019 53.4 9.9 52 24.4
2009-07-23 08:42:24 51°24.638 2°46.037 53.1 9.9 52 24.4
2009-07-23 08:42:29 51°24.647 2°46.054 53 9.9 51 24.2
2009-07-23 08:42:34 51°24.655 2°46.071 52.8 10 53 23.8
2009-07-23 08:42:38 51°24.662 2°46.085 52.9 10 51 24
2009-07-23 08:42:44 51°24.672 2°46.106 52.5 9.9 51 24.1
2009-07-23 08:42:49 51°24.681 2°46.123 52.7 10 52 23.9
2009-07-23 08:42:54 51°24.689 2°46.14 52.9 9.9 51 23.7
2009-07-23 08:42:58 51°24.696 2°46.154 53.2 9.9 54 24.2
2009-07-23 08:43:04 51°24.706 2°46.175 53.1 9.9 50 24.2
2009-07-23 08:43:09 51°24.714 2°46.192 52.7 9.8 53 24
2009-07-23 08:43:14 51°24.723 2°46.209 52.6 9.8 51 24.4
2009-07-23 08:43:18 51°24.73 2°46.223 52.5 9.8 52 24.3
2009-07-23 08:43:23 51°24.738 2°46.24 52.6 9.8 51 24.2
2009-07-23 08:43:29 51°24.749 2°46.26 52.3 9.8 51 24.1
2009-07-23 08:43:34 51°24.757 2°46.277 52.4 9.8 50 24.6
2009-07-23 08:43:39 51°24.766 2°46.293 51.8 9.8 50 24.5
2009-07-23 08:43:44 51°24.775 2°46.31 51.6 9.8 50 24.5
2009-07-23 08:43:49 51°24.783 2°46.327 51.4 9.9 50 24.5
2009-07-23 08:43:54 51°24.792 2°46.345 52.3 9.9 53 24.5
2009-07-23 08:43:59 51°24.801 2°46.361 52.6 9.9 50 23.9
2009-07-23 08:44:04 51°24.809 2°46.379 52.2 10 52 24.2
2009-07-23 08:44:09 51°24.818 2°46.396 52.3 9.9 51 24.5
2009-07-23 08:44:14 51°24.826 2°46.414 53.5 10 56 24.4
2009-07-23 08:44:19 51°24.833 2°46.432 55.1 9.9 55 24.3
2009-07-23 08:44:24 51°24.842 2°46.45 55.1 9.9 55 24.6
2009-07-23 08:44:29 51°24.849 2°46.468 56.4 9.9 57 24.6
2009-07-23 08:44:34 51°24.857 2°46.486 56.7 9.9 56 24.5
2009-07-23 08:44:38 51°24.862 2°46.501 56.8 10 58 24.5
2009-07-23 08:44:44 51°24.871 2°46.524 57.3 9.9 56 24.1
2009-07-23 08:44:49 51°24.878 2°46.542 57.7 9.9 59 23.9
2009-07-23 08:44:54 51°24.886 2°46.56 57.5 9.9 56 24
2009-07-23 08:44:59 51°24.893 2°46.579 58 10 60 24
2009-07-23 08:45:04 51°24.901 2°46.598 58.3 9.9 57 24.3
2009-07-23 08:45:09 51°24.908 2°46.616 57.4 10 58 24.6
2009-07-23 08:45:14 51°24.915 2°46.636 58.3 9.9 59 24.7
2009-07-23 08:45:19 51°24.922 2°46.654 58.2 9.9 57 24.4
2009-07-23 08:45:24 51°24.929 2°46.673 57.8 9.9 59 24.1
2009-07-23 08:45:29 51°24.936 2°46.691 58 9.9 57 24.1
2009-07-23 08:45:34 51°24.943 2°46.71 58.5 9.9 59 24.2
2009-07-23 08:45:38 51°24.949 2°46.725 58.1 9.9 57 24
2009-07-23 08:45:44 51°24.957 2°46.748 58 10 59 24.3
2009-07-23 08:45:49 51°24.965 2°46.767 58.3 10 57 24.3
2009-07-23 08:45:54 51°24.972 2°46.786 57.8 10 59 24.4
2009-07-23 08:45:59 51°24.98 2°46.804 57.9 10 57 24.2
2009-07-23 08:46:04 51°24.987 2°46.824 58.4 10 60 24.4
2009-07-23 08:46:09 51°24.994 2°46.843 58.9 10 59 24.2
2009-07-23 08:46:14 51°25.001 2°46.862 59.2 10 59 24.1
2009-07-23 08:46:19 51°25.008 2°46.881 58.9 10 60 24.5
2009-07-23 08:46:24 51°25.015 2°46.9 59.2 9.9 60 24.3
2009-07-23 08:46:29 51°25.022 2°46.919 59.5 10 60 24.2
2009-07-23 08:46:34 51°25.029 2°46.938 59.5 10 60 24.4
2009-07-23 08:46:39 51°25.036 2°46.958 59.4 10 60 24.4
2009-07-23 08:46:44 51°25.043 2°46.977 59.6 10 59 24.2
2009-07-23 08:46:49 51°25.05 2°46.996 59.3 10 59 23.9
2009-07-23 08:46:54 51°25.057 2°47.016 59.3 10.1 61 23.8
2009-07-23 08:46:58 51°25.062 2°47.031 59.9 10.1 60 24
2009-07-23 08:47:04 51°25.071 2°47.055 59.9 10.1 61 24.1
2009-07-23 08:47:09 51°25.078 2°47.074 60 10 60 24.3
2009-07-23 08:47:14 51°25.086 2°47.093 59.6 10 60 24.2
2009-07-23 08:47:19 51°25.093 2°47.112 59.5 10 59 24.2
2009-07-23 08:47:24 51°25.1 2°47.131 59.1 10 60 24
2009-07-23 08:47:29 51°25.106 2°47.151 59.7 10 60 24.4
2009-07-23 08:47:34 51°25.113 2°47.17 59.4 10.1 59 24.4
2009-07-23 08:47:39 51°25.121 2°47.189 59.1 10 60 24.2
2009-07-23 08:47:44 51°25.128 2°47.208 58.6 10 58 24.3